createdAt,value
2023-03-02T00:01:36.736Z,9.40
2023-03-02T00:04:06.516Z,9.90
2023-03-02T00:06:36.014Z,8.80
2023-03-02T00:09:06.071Z,11.50
2023-03-02T00:11:34.952Z,9.17
2023-03-02T00:14:05.171Z,9.80
2023-03-02T00:16:32.278Z,8.97
2023-03-02T00:18:59.227Z,10.10
2023-03-02T00:21:29.268Z,11.60
2023-03-02T00:23:56.135Z,10.30
2023-03-02T00:26:23.297Z,10.03
2023-03-02T00:28:50.140Z,10.20
2023-03-02T00:31:17.074Z,12.13
2023-03-02T00:33:46.639Z,9.57
2023-03-02T00:36:18.040Z,9.53
2023-03-02T00:38:45.118Z,16.87
2023-03-02T00:41:13.351Z,10.77
2023-03-02T00:43:44.043Z,10.63
2023-03-02T00:46:19.682Z,14.97
2023-03-02T00:48:46.844Z,13.90
2023-03-02T00:51:17.793Z,12.37
2023-03-02T00:53:45.178Z,12.90
2023-03-02T00:56:12.164Z,11.53
2023-03-02T00:58:39.113Z,12.70
2023-03-02T01:01:12.376Z,15.07
2023-03-02T01:03:39.503Z,16.37
2023-03-02T01:06:13.475Z,12.33
2023-03-02T01:08:40.239Z,14.50
2023-03-02T01:11:13.929Z,13.23
2023-03-02T01:13:40.815Z,13.97
2023-03-02T01:16:08.003Z,16.93
2023-03-02T01:18:38.653Z,14.33
2023-03-02T01:21:08.452Z,14.50
2023-03-02T01:23:35.204Z,16.80
2023-03-02T01:26:04.471Z,22.43
2023-03-02T01:28:31.525Z,21.07
2023-03-02T01:30:59.652Z,23.03
2023-03-02T01:33:29.311Z,20.80
2023-03-02T01:35:56.260Z,24.47
2023-03-02T01:38:23.226Z,23.53
2023-03-02T01:40:58.141Z,25.87
2023-03-02T01:43:25.894Z,22.73
2023-03-02T01:45:58.991Z,27.67
2023-03-02T01:48:52.948Z,30.70
2023-03-02T01:51:25.159Z,28.33
2023-03-02T01:53:57.212Z,24.87
2023-03-02T01:56:29.830Z,27.93
2023-03-02T01:59:04.153Z,32.70
2023-03-02T02:01:38.889Z,34.87
2023-03-02T02:04:06.997Z,32.73
2023-03-02T02:06:54.508Z,41.53
2023-03-02T02:09:23.746Z,33.50
2023-03-02T02:11:50.655Z,40.47
2023-03-02T02:15:22.106Z,39.47
2023-03-02T02:17:49.538Z,42.37
2023-03-02T02:20:21.749Z,41.77
2023-03-02T02:22:51.480Z,43.90
2023-03-02T02:25:30.715Z,44.17
2023-03-02T02:28:03.429Z,42.97
2023-03-02T02:30:30.297Z,40.33
2023-03-02T02:32:58.426Z,41.93
2023-03-02T02:35:28.352Z,43.83
2023-03-02T02:37:59.093Z,49.37
2023-03-02T02:40:58.218Z,47.23
2023-03-02T02:43:33.687Z,43.77
2023-03-02T02:46:01.995Z,44.13
2023-03-02T02:48:31.284Z,49.37
2023-03-02T02:51:03.504Z,51.33
2023-03-02T02:53:58.629Z,45.90
2023-03-02T02:56:38.488Z,43.83
2023-03-02T02:59:19.365Z,42.70
2023-03-02T03:01:50.697Z,49.63
2023-03-02T03:04:30.149Z,43.30
2023-03-02T03:07:05.034Z,45.80
2023-03-02T03:09:32.461Z,43.97
2023-03-02T03:12:08.451Z,52.07
2023-03-02T03:14:39.345Z,42.53
2023-03-02T03:17:13.320Z,46.13
2023-03-02T03:19:43.316Z,43.40
2023-03-02T03:22:14.613Z,49.33
2023-03-02T03:24:45.021Z,47.60
2023-03-02T03:27:15.260Z,45.67
2023-03-02T03:29:44.808Z,43.20
2023-03-02T03:32:11.702Z,48.07
2023-03-02T03:34:40.866Z,41.93
2023-03-02T03:37:09.995Z,43.90
2023-03-02T03:39:37.390Z,47.83
2023-03-02T03:42:05.721Z,47.73
2023-03-02T03:44:32.710Z,51.70
2023-03-02T03:46:59.559Z,48.67
2023-03-02T03:49:29.684Z,47.03
2023-03-02T03:51:56.628Z,49.70
2023-03-02T03:54:23.415Z,47.10
2023-03-02T03:56:51.791Z,46.20
2023-03-02T03:59:24.223Z,50.67
2023-03-02T04:01:57.387Z,50.80
2023-03-02T04:04:31.404Z,46.20
2023-03-02T04:06:58.689Z,44.83
2023-03-02T04:09:26.648Z,45.90
2023-03-02T04:11:55.619Z,47.20
2023-03-02T04:14:24.220Z,46.83
2023-03-02T04:16:51.886Z,42.67
2023-03-02T04:19:18.799Z,47.10
2023-03-02T04:21:49.148Z,44.93
2023-03-02T04:24:16.789Z,47.63
2023-03-02T04:26:44.776Z,42.53
2023-03-02T04:29:13.183Z,40.97
2023-03-02T04:31:40.634Z,46.87
2023-03-02T04:34:08.887Z,47.03
2023-03-02T04:36:38.748Z,46.17
2023-03-02T04:39:06.786Z,49.33
2023-03-02T04:41:34.270Z,46.57
2023-03-02T04:44:01.107Z,44.63
2023-03-02T04:46:28.692Z,44.10
2023-03-02T04:48:55.875Z,41.17
2023-03-02T04:51:32.674Z,43.43
2023-03-02T04:54:04.654Z,46.67
2023-03-02T04:56:31.919Z,47.17
2023-03-02T04:58:59.487Z,41.27
2023-03-02T05:01:26.835Z,47.40
2023-03-02T05:03:53.890Z,43.87
2023-03-02T05:06:21.901Z,45.27
2023-03-02T05:08:52.839Z,45.50
2023-03-02T05:11:23.376Z,45.63
2023-03-02T05:13:56.257Z,44.10
2023-03-02T05:16:29.179Z,46.73
2023-03-02T05:18:56.284Z,42.57
2023-03-02T05:21:23.302Z,45.20
2023-03-02T05:23:50.600Z,43.50
2023-03-02T05:26:17.536Z,49.23
2023-03-02T05:28:44.529Z,44.10
2023-03-02T05:31:21.554Z,45.27
2023-03-02T05:33:48.753Z,45.93
2023-03-02T05:36:18.982Z,44.07
2023-03-02T05:38:46.779Z,44.13
2023-03-02T05:41:13.586Z,44.43
2023-03-02T05:43:40.794Z,44.70
2023-03-02T05:46:07.663Z,46.80
2023-03-02T05:48:34.678Z,44.17
2023-03-02T05:51:01.475Z,47.67
2023-03-02T05:53:29.659Z,43.40
2023-03-02T05:55:56.648Z,47.17
2023-03-02T05:58:23.529Z,37.03
2023-03-02T06:00:50.529Z,42.17
2023-03-02T06:03:17.909Z,45.10
2023-03-02T06:05:44.698Z,46.40
2023-03-02T06:08:11.565Z,42.90
2023-03-02T06:10:41.580Z,47.83
2023-03-02T06:13:08.416Z,41.37
2023-03-02T06:15:35.270Z,50.97
2023-03-02T06:18:02.057Z,48.43
2023-03-02T06:20:28.941Z,44.40
2023-03-02T06:22:55.785Z,49.20
2023-03-02T06:25:24.550Z,41.20
2023-03-02T06:27:53.722Z,44.57
2023-03-02T06:30:22.988Z,48.93
2023-03-02T06:32:49.979Z,49.00
2023-03-02T06:35:17.094Z,47.10
2023-03-02T06:37:44.414Z,46.33
2023-03-02T06:40:13.667Z,45.37
2023-03-02T06:42:41.665Z,45.87
2023-03-02T06:45:09.594Z,47.80
2023-03-02T06:47:37.350Z,42.50
2023-03-02T06:50:08.511Z,45.60
2023-03-02T06:52:41.072Z,46.90
2023-03-02T06:55:08.267Z,44.17
2023-03-02T06:57:35.009Z,45.27
2023-03-02T07:00:09.822Z,47.50
2023-03-02T07:02:39.707Z,46.00
2023-03-02T07:05:07.405Z,48.87
2023-03-02T07:07:34.205Z,43.43
2023-03-02T07:10:01.056Z,55.07
2023-03-02T07:12:28.061Z,45.20
2023-03-02T07:14:54.856Z,49.60
2023-03-02T07:17:21.658Z,49.43
2023-03-02T07:19:48.502Z,43.27
2023-03-02T07:22:15.254Z,48.90
2023-03-02T07:24:44.058Z,48.83
2023-03-02T07:27:12.152Z,52.23
2023-03-02T07:29:39.054Z,45.83
2023-03-02T07:32:12.093Z,45.07
2023-03-02T07:34:39.458Z,46.43
2023-03-02T07:37:09.338Z,47.50
2023-03-02T07:39:36.134Z,45.43
2023-03-02T07:42:04.644Z,49.67
2023-03-02T07:44:34.957Z,44.80
2023-03-02T07:47:01.753Z,45.47
2023-03-02T07:49:28.640Z,45.27
2023-03-02T07:51:55.385Z,48.50
2023-03-02T07:54:22.547Z,46.33
2023-03-02T07:56:49.329Z,45.57
2023-03-02T07:59:16.064Z,50.90
2023-03-02T08:01:42.902Z,48.17
2023-03-02T08:04:09.813Z,51.47
2023-03-02T08:06:36.813Z,49.97
2023-03-02T08:09:07.289Z,52.33
2023-03-02T08:11:34.341Z,47.67
2023-03-02T08:14:02.719Z,47.43
2023-03-02T08:16:29.964Z,49.73
2023-03-02T08:18:59.636Z,49.20
2023-03-02T08:21:28.482Z,50.33
2023-03-02T08:23:55.221Z,55.50
2023-03-02T08:26:22.245Z,60.67
2023-03-02T08:28:49.166Z,58.90
2023-03-02T08:31:16.357Z,54.63
2023-03-02T08:33:43.231Z,51.70
2023-03-02T08:36:14.617Z,53.03
2023-03-02T08:38:42.797Z,49.17
2023-03-02T08:41:13.519Z,44.70
2023-03-02T08:43:40.573Z,43.80
2023-03-02T08:46:07.653Z,37.90
2023-03-02T08:48:34.802Z,40.67
2023-03-02T08:51:03.024Z,37.70
2023-03-02T08:53:32.976Z,38.43
2023-03-02T08:55:59.974Z,36.00
2023-03-02T08:58:26.861Z,41.33
2023-03-02T09:00:53.722Z,36.20
2023-03-02T09:03:20.915Z,36.57
2023-03-02T09:05:47.901Z,31.07
2023-03-02T09:08:14.639Z,32.93
2023-03-02T09:10:41.687Z,33.10
2023-03-02T09:13:08.780Z,33.17
2023-03-02T09:15:35.690Z,31.73
2023-03-02T09:18:02.503Z,29.80
2023-03-02T09:20:29.433Z,30.87
2023-03-02T09:22:56.328Z,35.10
2023-03-02T09:25:23.257Z,29.00
2023-03-02T09:27:49.975Z,31.33
2023-03-02T09:30:16.840Z,30.03
2023-03-02T09:32:43.848Z,30.07
2023-03-02T09:35:10.745Z,27.33
2023-03-02T09:37:38.908Z,30.50
2023-03-02T09:40:17.367Z,27.07
2023-03-02T09:43:02.953Z,28.27
2023-03-02T09:45:43.857Z,28.40
2023-03-02T09:48:24.493Z,28.23
2023-03-02T09:51:20.338Z,25.83
2023-03-02T09:53:52.491Z,26.10
2023-03-02T09:56:20.245Z,25.13
2023-03-02T09:59:03.553Z,26.07
2023-03-02T10:01:43.997Z,29.47
2023-03-02T10:04:19.936Z,26.23
2023-03-02T10:06:47.497Z,23.40
2023-03-02T10:09:14.371Z,29.20
2023-03-02T10:12:17.455Z,25.40
2023-03-02T10:15:03.051Z,26.63
2023-03-02T10:17:52.905Z,26.37
2023-03-02T10:20:22.879Z,22.83
2023-03-02T10:22:56.527Z,23.97
2023-03-02T10:25:49.355Z,28.20
2023-03-02T10:28:20.496Z,26.53
2023-03-02T10:31:18.863Z,24.10
2023-03-02T10:33:45.628Z,24.93
2023-03-02T10:36:23.968Z,23.90
2023-03-02T10:38:51.195Z,24.37
2023-03-02T10:41:45.817Z,25.33
2023-03-02T10:44:38.009Z,24.97
2023-03-02T10:47:07.612Z,21.70
2023-03-02T10:49:42.791Z,27.77
2023-03-02T10:52:15.319Z,25.23
2023-03-02T10:54:42.656Z,25.43
2023-03-02T10:57:34.633Z,23.10
2023-03-02T11:00:23.064Z,24.70
2023-03-02T11:03:03.357Z,21.50
2023-03-02T11:05:39.090Z,24.10
2023-03-02T11:08:08.536Z,26.07
2023-03-02T11:10:41.630Z,22.07
2023-03-02T11:13:24.538Z,23.73
2023-03-02T11:15:57.904Z,23.90
2023-03-02T11:18:36.853Z,23.40
2023-03-02T11:21:25.797Z,18.53
2023-03-02T11:24:11.247Z,22.37
2023-03-02T11:26:45.078Z,22.77
2023-03-02T11:29:11.870Z,22.70
2023-03-02T11:32:03.912Z,19.93
2023-03-02T11:34:51.906Z,21.23
2023-03-02T11:37:21.566Z,20.43
2023-03-02T11:39:55.100Z,21.37
2023-03-02T11:42:34.262Z,20.03
2023-03-02T11:45:15.470Z,20.60
2023-03-02T11:48:14.979Z,22.07
2023-03-02T11:50:56.437Z,21.57
2023-03-02T11:53:30.006Z,18.27
2023-03-02T11:55:56.814Z,17.97
2023-03-02T11:58:29.752Z,17.33
2023-03-02T12:00:57.969Z,18.47
2023-03-02T12:03:38.573Z,19.13
2023-03-02T12:06:25.357Z,17.43
2023-03-02T12:08:55.170Z,17.40
2023-03-02T12:11:24.774Z,16.90
2023-03-02T12:13:55.052Z,16.17
2023-03-02T12:16:23.386Z,15.03
2023-03-02T12:18:54.721Z,16.67
2023-03-02T12:21:25.716Z,17.50
2023-03-02T12:23:52.468Z,14.93
2023-03-02T12:26:27.358Z,15.33
2023-03-02T12:29:23.412Z,15.03
2023-03-02T12:31:53.819Z,12.93
2023-03-02T12:34:40.640Z,14.27
2023-03-02T12:37:23.598Z,13.90
2023-03-02T12:40:19.419Z,13.83
2023-03-02T12:42:57.064Z,13.73
2023-03-02T12:46:03.841Z,12.77
2023-03-02T12:49:09.658Z,15.13
2023-03-02T12:52:04.877Z,12.57
2023-03-02T12:54:34.356Z,14.53
2023-03-02T12:57:20.328Z,14.97
2023-03-02T12:59:55.570Z,13.03
2023-03-02T13:02:28.691Z,12.50
2023-03-02T13:05:07.408Z,12.27
2023-03-02T13:07:43.316Z,14.10
2023-03-02T13:10:25.877Z,13.50
2023-03-02T13:12:52.771Z,14.17
2023-03-02T13:15:19.606Z,13.67
2023-03-02T13:17:57.598Z,12.17
2023-03-02T13:20:29.421Z,13.03
2023-03-02T13:22:56.550Z,11.87
2023-03-02T13:25:27.542Z,10.17
2023-03-02T13:28:07.601Z,13.17
2023-03-02T13:30:37.440Z,10.67
2023-03-02T13:33:21.691Z,11.87
2023-03-02T13:35:48.704Z,12.53
2023-03-02T13:38:27.279Z,11.20
2023-03-02T13:40:55.399Z,12.63
2023-03-02T13:43:31.460Z,12.67
2023-03-02T13:46:04.706Z,12.70
2023-03-02T13:48:32.365Z,11.40
2023-03-02T13:51:03.170Z,11.97
2023-03-02T13:53:37.111Z,9.87
2023-03-02T13:56:07.492Z,12.83
2023-03-02T13:58:39.769Z,11.93
2023-03-02T14:01:07.641Z,10.47
2023-03-02T14:03:34.629Z,11.00
2023-03-02T14:06:05.973Z,12.27
2023-03-02T14:08:33.001Z,13.63
2023-03-02T14:11:01.183Z,11.47
2023-03-02T14:13:40.230Z,12.97
2023-03-02T14:16:07.750Z,12.20
2023-03-02T14:18:40.642Z,10.87
2023-03-02T14:21:15.976Z,11.63
2023-03-02T14:23:43.236Z,14.33
2023-03-02T14:26:35.745Z,11.60
2023-03-02T14:29:16.579Z,11.87
2023-03-02T14:31:43.382Z,13.73
2023-03-02T14:34:13.879Z,12.40
2023-03-02T14:36:41.738Z,14.67
2023-03-02T14:39:22.979Z,11.77
2023-03-02T14:41:54.094Z,13.67
2023-03-02T14:44:23.592Z,15.27
2023-03-02T14:46:50.671Z,13.93
2023-03-02T14:49:17.587Z,12.20
2023-03-02T14:51:56.064Z,15.13
2023-03-02T14:54:25.802Z,13.03
2023-03-02T14:56:53.007Z,14.60
2023-03-02T14:59:19.989Z,13.90
2023-03-02T15:01:46.784Z,14.37
2023-03-02T15:04:16.424Z,12.60
2023-03-02T15:06:43.956Z,13.20
2023-03-02T15:09:11.916Z,14.47
2023-03-02T15:11:38.772Z,11.07
2023-03-02T15:14:05.569Z,10.97
2023-03-02T15:16:32.543Z,13.83
2023-03-02T15:19:08.845Z,12.63
2023-03-02T15:21:35.902Z,11.63
2023-03-02T15:24:05.528Z,10.67
2023-03-02T15:26:32.551Z,12.53
2023-03-02T15:28:59.346Z,11.00
2023-03-02T15:31:28.174Z,10.57
2023-03-02T15:33:55.775Z,11.70
2023-03-02T15:36:23.628Z,11.60
2023-03-02T15:38:50.874Z,10.97
2023-03-02T15:41:17.791Z,10.77
2023-03-02T15:43:45.383Z,12.77
2023-03-02T15:46:12.359Z,15.03
2023-03-02T15:48:39.268Z,13.13
2023-03-02T15:51:10.295Z,10.60
2023-03-02T15:53:38.658Z,11.53
2023-03-02T15:56:11.038Z,12.53
2023-03-02T15:58:37.946Z,11.27
2023-03-02T16:01:09.356Z,12.10
2023-03-02T16:03:44.347Z,12.23
2023-03-02T16:06:11.315Z,13.67
2023-03-02T16:08:38.071Z,12.53
2023-03-02T16:11:10.036Z,13.93
2023-03-02T16:13:36.857Z,13.00
2023-03-02T16:16:05.693Z,14.50
2023-03-02T16:18:33.018Z,12.53
2023-03-02T16:20:59.846Z,10.73
2023-03-02T16:23:26.758Z,13.10
2023-03-02T16:25:53.523Z,13.17
2023-03-02T16:28:20.933Z,14.03
2023-03-02T16:30:48.029Z,12.50
2023-03-02T16:33:17.287Z,17.03
2023-03-02T16:35:44.593Z,13.63
2023-03-02T16:38:11.726Z,15.67
2023-03-02T16:40:40.121Z,17.73
2023-03-02T16:43:10.877Z,12.20
2023-03-02T16:45:37.810Z,15.17
2023-03-02T16:48:05.744Z,14.67
2023-03-02T16:50:33.184Z,13.93
2023-03-02T16:53:00.255Z,14.33
2023-03-02T16:55:27.433Z,14.97
2023-03-02T16:57:56.932Z,15.47
2023-03-02T17:00:24.660Z,14.37
2023-03-02T17:02:52.011Z,16.83
2023-03-02T17:05:20.402Z,14.50
2023-03-02T17:07:47.846Z,14.83
2023-03-02T17:10:18.173Z,15.13
2023-03-02T17:12:45.190Z,15.17
2023-03-02T17:15:14.013Z,16.47
2023-03-02T17:17:41.368Z,15.37
2023-03-02T17:20:11.726Z,17.13
2023-03-02T17:22:41.629Z,15.17
2023-03-02T17:25:10.934Z,16.03
2023-03-02T17:27:39.832Z,17.03
2023-03-02T17:30:09.098Z,16.10
2023-03-02T17:32:35.921Z,15.67
2023-03-02T17:35:02.939Z,14.40
2023-03-02T17:37:30.509Z,14.17
2023-03-02T17:39:57.403Z,16.63
2023-03-02T17:42:24.308Z,14.30
2023-03-02T17:44:51.174Z,13.43
2023-03-02T17:47:18.117Z,15.57
2023-03-02T17:49:45.235Z,12.83
2023-03-02T17:52:13.416Z,14.43
2023-03-02T17:54:40.490Z,14.07
2023-03-02T17:57:08.363Z,13.63
2023-03-02T17:59:35.492Z,11.90
2023-03-02T18:02:02.275Z,15.07
2023-03-02T18:04:29.167Z,15.10
2023-03-02T18:06:56.049Z,15.27
2023-03-02T18:09:22.925Z,14.17
2023-03-02T18:11:52.693Z,17.17
2023-03-02T18:14:21.260Z,16.63
2023-03-02T18:16:48.285Z,16.60
2023-03-02T18:19:15.148Z,15.60
2023-03-02T18:21:42.503Z,16.77
2023-03-02T18:24:12.556Z,17.50
2023-03-02T18:26:39.236Z,19.13
2023-03-02T18:29:06.318Z,16.93
2023-03-02T18:31:34.213Z,20.97
2023-03-02T18:34:02.266Z,20.97
2023-03-02T18:36:29.579Z,20.03
2023-03-02T18:38:56.832Z,19.93
2023-03-02T18:41:24.568Z,19.43
2023-03-02T18:43:52.265Z,18.67
2023-03-02T18:46:23.171Z,21.07
2023-03-02T18:48:51.065Z,19.00
2023-03-02T18:51:18.919Z,20.77
2023-03-02T18:53:46.456Z,21.60
2023-03-02T18:56:13.461Z,22.40
2023-03-02T18:58:43.411Z,21.40
2023-03-02T19:01:10.711Z,21.03
2023-03-02T19:03:38.970Z,20.67
2023-03-02T19:06:07.999Z,20.03
2023-03-02T19:08:35.769Z,22.03
2023-03-02T19:11:06.863Z,21.00
2023-03-02T19:13:33.853Z,20.70
2023-03-02T19:16:02.018Z,21.77
2023-03-02T19:18:30.068Z,20.63
2023-03-02T19:20:57.807Z,21.37
2023-03-02T19:23:25.253Z,22.57
2023-03-02T19:25:52.122Z,24.03
2023-03-02T19:28:21.777Z,22.43
2023-03-02T19:30:49.508Z,22.83
2023-03-02T19:33:19.514Z,21.87
2023-03-02T19:35:46.418Z,23.40
2023-03-02T19:38:13.186Z,23.47
2023-03-02T19:40:40.076Z,24.90
2023-03-02T19:43:07.048Z,25.23
2023-03-02T19:45:35.653Z,22.73
2023-03-02T19:48:03.705Z,24.73
2023-03-02T19:50:30.984Z,24.57
2023-03-02T19:52:58.962Z,25.67
2023-03-02T19:55:26.641Z,27.50
2023-03-02T19:57:59.725Z,24.13
2023-03-02T20:00:30.652Z,25.40
2023-03-02T20:02:57.707Z,25.00
2023-03-02T20:05:27.344Z,25.83
2023-03-02T20:07:57.407Z,24.23
2023-03-02T20:10:31.762Z,23.67
2023-03-02T20:12:59.632Z,23.77
2023-03-02T20:15:31.712Z,27.50
2023-03-02T20:18:02.726Z,27.97
2023-03-02T20:20:31.142Z,28.27
2023-03-02T20:22:58.735Z,28.27
2023-03-02T20:25:27.675Z,29.23
2023-03-02T20:27:54.814Z,24.67
2023-03-02T20:30:35.218Z,27.10
2023-03-02T20:33:02.420Z,27.50
2023-03-02T20:35:31.883Z,25.27
2023-03-02T20:38:00.787Z,25.07
2023-03-02T20:40:28.133Z,29.87
2023-03-02T20:43:04.719Z,24.67
2023-03-02T20:45:34.828Z,23.33
2023-03-02T20:48:02.557Z,24.60
2023-03-02T20:50:32.617Z,25.03
2023-03-02T20:53:06.563Z,29.50
2023-03-02T20:55:33.878Z,26.13
2023-03-02T20:58:01.233Z,26.97
2023-03-02T21:00:32.544Z,26.83
2023-03-02T21:02:59.696Z,30.47
2023-03-02T21:05:28.317Z,27.20
2023-03-02T21:07:56.226Z,27.67
2023-03-02T21:10:28.872Z,26.83
2023-03-02T21:12:56.115Z,28.47
2023-03-02T21:15:24.001Z,28.17
2023-03-02T21:17:56.880Z,29.57
2023-03-02T21:20:26.080Z,27.70
2023-03-02T21:22:52.797Z,27.43
2023-03-02T21:25:22.714Z,24.77
2023-03-02T21:27:49.608Z,25.90
2023-03-02T21:30:28.892Z,25.87
2023-03-02T21:32:55.612Z,29.20
2023-03-02T21:35:23.761Z,30.17
2023-03-02T21:37:53.008Z,24.40
2023-03-02T21:40:26.502Z,25.13
2023-03-02T21:42:53.849Z,26.37
2023-03-02T21:45:22.743Z,25.07
2023-03-02T21:47:56.808Z,25.50
2023-03-02T21:50:27.048Z,28.90
2023-03-02T21:52:55.425Z,26.63
2023-03-02T21:55:22.337Z,25.43
2023-03-02T21:57:49.035Z,27.53
2023-03-02T22:00:20.935Z,22.27
2023-03-02T22:02:47.983Z,29.33
2023-03-02T22:05:17.589Z,26.67
2023-03-02T22:07:47.569Z,25.50
2023-03-02T22:10:52.889Z,25.10
2023-03-02T22:13:23.772Z,26.73
2023-03-02T22:16:16.349Z,26.07
2023-03-02T22:18:44.665Z,25.37
2023-03-02T22:21:29.058Z,29.00
2023-03-02T22:24:10.935Z,27.33
2023-03-02T22:26:46.755Z,25.87
2023-03-02T22:29:16.412Z,27.83
2023-03-02T22:31:47.305Z,24.63
2023-03-02T22:34:20.594Z,27.57
2023-03-02T22:36:48.262Z,26.37
2023-03-02T22:39:27.505Z,25.27
2023-03-02T22:42:21.388Z,24.87
2023-03-02T22:44:59.449Z,24.10
2023-03-02T22:47:27.258Z,24.60
2023-03-02T22:50:01.454Z,26.37
2023-03-02T22:52:39.456Z,24.63
2023-03-02T22:55:35.898Z,28.20
2023-03-02T22:58:20.353Z,31.87
2023-03-02T23:00:48.033Z,27.60
2023-03-02T23:03:19.976Z,23.07
2023-03-02T23:05:51.552Z,28.37
2023-03-02T23:08:23.986Z,27.30
2023-03-02T23:10:55.656Z,26.93
2023-03-02T23:13:36.378Z,26.43
2023-03-02T23:16:16.036Z,24.53
2023-03-02T23:18:43.733Z,29.67
2023-03-02T23:21:40.941Z,23.30
2023-03-02T23:24:08.925Z,25.73
2023-03-02T23:26:36.659Z,23.97
2023-03-02T23:29:04.288Z,24.57
2023-03-02T23:31:31.744Z,26.27
2023-03-02T23:33:58.598Z,24.70
2023-03-02T23:36:28.825Z,27.23
2023-03-02T23:38:55.717Z,24.77
2023-03-02T23:41:22.623Z,25.80
2023-03-02T23:43:49.474Z,26.93
2023-03-02T23:46:16.277Z,26.80
2023-03-02T23:48:43.403Z,26.93
2023-03-02T23:51:10.745Z,29.73
2023-03-02T23:53:42.533Z,28.03
2023-03-02T23:56:09.284Z,33.07
2023-03-02T23:58:39.239Z,29.40
